createdAt,value
2017-04-29T00:00:48.749Z,1007.18
2017-04-29T00:01:50.165Z,1007.13
2017-04-29T00:02:51.581Z,1007.16
2017-04-29T00:03:52.996Z,1007.18
2017-04-29T00:04:54.407Z,1007.16
2017-04-29T00:05:55.825Z,1007.17
2017-04-29T00:06:57.247Z,1007.17
2017-04-29T00:07:58.667Z,1007.16
2017-04-29T00:09:00.084Z,1007.15
2017-04-29T00:10:01.501Z,1007.18
2017-04-29T00:11:02.915Z,1007.16
2017-04-29T00:12:04.341Z,1007.21
2017-04-29T00:13:05.759Z,1007.18
2017-04-29T00:14:07.191Z,1007.22
2017-04-29T00:15:08.654Z,1007.23
2017-04-29T00:16:10.074Z,1007.19
2017-04-29T00:17:11.492Z,1007.19
2017-04-29T00:18:12.917Z,1007.24
2017-04-29T00:19:14.342Z,1007.21
2017-04-29T00:20:15.758Z,1007.21
2017-04-29T00:21:17.177Z,1007.22
2017-04-29T00:22:18.592Z,1007.20
2017-04-29T00:23:20.010Z,1007.20
2017-04-29T00:24:21.428Z,1007.22
2017-04-29T00:25:22.847Z,1007.22
2017-04-29T00:26:24.267Z,1007.24
2017-04-29T00:27:25.686Z,1007.29
2017-04-29T00:28:27.105Z,1007.24
2017-04-29T00:29:28.519Z,1007.25
2017-04-29T00:30:29.938Z,1007.24
2017-04-29T00:31:31.358Z,1007.15
2017-04-29T00:32:32.781Z,1007.21
2017-04-29T00:33:34.194Z,1007.22
2017-04-29T00:34:35.610Z,1007.22
2017-04-29T00:35:37.025Z,1007.24
2017-04-29T00:36:38.436Z,1007.25
2017-04-29T00:37:39.850Z,1007.26
2017-04-29T00:38:41.261Z,1007.26
2017-04-29T00:39:42.706Z,1007.25
2017-04-29T00:40:44.090Z,1007.26
2017-04-29T00:41:45.504Z,1007.22
2017-04-29T00:42:46.917Z,1007.20
2017-04-29T00:43:48.334Z,1007.23
2017-04-29T00:44:49.754Z,1007.24
2017-04-29T00:45:51.175Z,1007.24
2017-04-29T00:46:52.592Z,1007.20
2017-04-29T00:47:54.018Z,1007.23
2017-04-29T00:48:55.423Z,1007.20
2017-04-29T00:49:56.836Z,1007.21
2017-04-29T00:50:58.257Z,1007.14
2017-04-29T00:51:59.679Z,1007.19
2017-04-29T00:53:01.157Z,1007.17
2017-04-29T00:54:02.579Z,1007.22
2017-04-29T00:55:03.996Z,1007.20
2017-04-29T00:56:05.421Z,1007.17
2017-04-29T00:57:06.911Z,1007.19
2017-04-29T00:58:08.337Z,1007.17
2017-04-29T00:59:09.757Z,1007.15
2017-04-29T01:00:11.182Z,1007.17
2017-04-29T01:01:12.608Z,1007.14
2017-04-29T01:02:14.023Z,1007.16
2017-04-29T01:03:15.438Z,1007.13
2017-04-29T01:04:16.852Z,1007.16
2017-04-29T01:05:18.266Z,1007.17
2017-04-29T01:06:19.687Z,1007.20
2017-04-29T01:07:21.102Z,1007.23
2017-04-29T01:08:22.525Z,1007.19
2017-04-29T01:09:23.939Z,1007.17
2017-04-29T01:10:25.367Z,1007.17
2017-04-29T01:11:26.785Z,1007.20
2017-04-29T01:12:28.205Z,1007.17
2017-04-29T01:13:29.619Z,1007.15
2017-04-29T01:14:31.039Z,1007.20
2017-04-29T01:15:32.453Z,1007.19
2017-04-29T01:16:33.867Z,1007.22
2017-04-29T01:17:35.280Z,1007.20
2017-04-29T01:18:36.694Z,1007.27
2017-04-29T01:19:38.110Z,1007.29
2017-04-29T01:20:39.525Z,1007.28
2017-04-29T01:21:40.941Z,1007.30
2017-04-29T01:22:42.362Z,1007.29
2017-04-29T01:23:43.775Z,1007.30
2017-04-29T01:24:45.188Z,1007.35
2017-04-29T01:25:46.609Z,1007.36
2017-04-29T01:26:48.027Z,1007.34
2017-04-29T01:27:49.444Z,1007.36
2017-04-29T01:28:50.863Z,1007.37
2017-04-29T01:29:52.283Z,1007.34
2017-04-29T01:30:53.707Z,1007.39
2017-04-29T01:31:55.121Z,1007.34
2017-04-29T01:32:56.537Z,1007.37
2017-04-29T01:33:57.952Z,1007.35
2017-04-29T01:34:59.368Z,1007.41
2017-04-29T01:36:00.839Z,1007.39
2017-04-29T01:37:02.251Z,1007.41
2017-04-29T01:38:03.667Z,1007.42
2017-04-29T01:39:05.088Z,1007.44
2017-04-29T01:40:06.500Z,1007.43
2017-04-29T01:41:07.915Z,1007.45
2017-04-29T01:42:09.326Z,1007.46
2017-04-29T01:43:10.742Z,1007.47
2017-04-29T01:44:12.160Z,1007.44
2017-04-29T01:45:13.578Z,1007.50
2017-04-29T01:46:15.004Z,1007.55
2017-04-29T01:47:16.426Z,1007.55
2017-04-29T01:48:17.847Z,1007.52
2017-04-29T01:49:19.264Z,1007.58
2017-04-29T01:50:20.675Z,1007.55
2017-04-29T01:51:22.094Z,1007.57
2017-04-29T01:52:23.509Z,1007.57
2017-04-29T01:53:24.929Z,1007.52
2017-04-29T01:54:26.347Z,1007.57
2017-04-29T01:55:27.767Z,1007.58
2017-04-29T01:56:29.192Z,1007.57
2017-04-29T01:57:30.605Z,1007.67
2017-04-29T01:58:32.025Z,1007.66
2017-04-29T01:59:33.446Z,1007.69
2017-04-29T02:00:34.861Z,1007.71
2017-04-29T02:01:36.281Z,1007.67
2017-04-29T02:02:37.701Z,1007.72
2017-04-29T02:03:39.124Z,1007.73
2017-04-29T02:04:40.542Z,1007.70
2017-04-29T02:05:41.955Z,1007.69
2017-04-29T02:06:43.371Z,1007.69
2017-04-29T02:07:44.793Z,1007.70
2017-04-29T02:08:46.203Z,1007.70
2017-04-29T02:09:47.624Z,1007.65
2017-04-29T02:10:49.042Z,1007.67
2017-04-29T02:11:50.465Z,1007.67
2017-04-29T02:12:51.884Z,1007.68
2017-04-29T02:13:53.297Z,1007.69
2017-04-29T02:14:54.729Z,1007.68
2017-04-29T02:15:56.133Z,1007.68
2017-04-29T02:16:57.556Z,1007.68
2017-04-29T02:17:59.066Z,1007.69
2017-04-29T02:19:00.481Z,1007.70
2017-04-29T02:20:01.902Z,1007.67
2017-04-29T02:21:03.319Z,1007.65
2017-04-29T02:22:04.733Z,1007.68
2017-04-29T02:23:06.147Z,1007.70
2017-04-29T02:24:07.564Z,1007.70
2017-04-29T02:25:08.987Z,1007.69
2017-04-29T02:26:10.406Z,1007.75
2017-04-29T02:27:11.817Z,1007.77
2017-04-29T02:28:13.237Z,1007.77
2017-04-29T02:29:14.650Z,1007.73
2017-04-29T02:30:16.077Z,1007.72
2017-04-29T02:31:17.486Z,1007.69
2017-04-29T02:32:18.903Z,1007.71
2017-04-29T02:33:20.325Z,1007.72
2017-04-29T02:34:21.737Z,1007.69
2017-04-29T02:35:23.155Z,1007.73
2017-04-29T02:36:24.576Z,1007.70
2017-04-29T02:37:25.996Z,1007.69
2017-04-29T02:38:27.415Z,1007.72
2017-04-29T02:39:28.829Z,1007.68
2017-04-29T02:40:30.247Z,1007.77
2017-04-29T02:41:31.662Z,1007.72
2017-04-29T02:42:33.085Z,1007.74
2017-04-29T02:43:34.500Z,1007.78
2017-04-29T02:44:35.914Z,1007.80
2017-04-29T02:45:37.327Z,1007.75
2017-04-29T02:46:38.743Z,1007.83
2017-04-29T02:47:40.160Z,1007.80
2017-04-29T02:48:41.573Z,1007.82
2017-04-29T02:49:42.987Z,1007.77
2017-04-29T02:50:44.400Z,1007.79
2017-04-29T02:51:45.819Z,1007.76
2017-04-29T02:52:47.235Z,1007.77
2017-04-29T02:53:48.687Z,1007.78
2017-04-29T02:54:50.104Z,1007.79
2017-04-29T02:55:51.517Z,1007.77
2017-04-29T02:56:52.933Z,1007.81
2017-04-29T02:57:54.353Z,1007.80
2017-04-29T02:58:55.759Z,1007.79
2017-04-29T02:59:57.185Z,1007.83
2017-04-29T03:00:58.685Z,1007.82
2017-04-29T03:02:00.100Z,1007.80
2017-04-29T03:03:01.510Z,1007.85
2017-04-29T03:04:03.025Z,1007.81
2017-04-29T03:05:04.444Z,1007.86
2017-04-29T03:06:05.857Z,1007.86
2017-04-29T03:07:07.268Z,1007.86
2017-04-29T03:08:08.689Z,1007.88
2017-04-29T03:09:10.105Z,1007.89
2017-04-29T03:10:11.528Z,1007.88
2017-04-29T03:11:12.939Z,1007.93
2017-04-29T03:12:14.364Z,1007.87
2017-04-29T03:13:15.779Z,1007.86
2017-04-29T03:14:17.197Z,1007.87
2017-04-29T03:15:18.612Z,1007.84
2017-04-29T03:16:20.026Z,1007.85
2017-04-29T03:17:21.445Z,1007.81
2017-04-29T03:18:22.861Z,1007.86
2017-04-29T03:19:24.277Z,1007.85
2017-04-29T03:20:25.692Z,1007.83
2017-04-29T03:21:27.103Z,1007.85
2017-04-29T03:22:28.515Z,1007.85
2017-04-29T03:23:29.933Z,1007.89
2017-04-29T03:24:31.346Z,1007.80
2017-04-29T03:25:32.759Z,1007.84
2017-04-29T03:26:34.178Z,1007.82
2017-04-29T03:27:35.591Z,1007.80
2017-04-29T03:28:37.010Z,1007.78
2017-04-29T03:29:38.429Z,1007.84
2017-04-29T03:30:39.846Z,1007.86
2017-04-29T03:31:41.264Z,1007.86
2017-04-29T03:32:42.682Z,1007.86
2017-04-29T03:33:44.099Z,1007.87
2017-04-29T03:34:45.511Z,1007.86
2017-04-29T03:35:46.923Z,1007.88
2017-04-29T03:36:48.349Z,1007.84
2017-04-29T03:37:49.767Z,1007.91
2017-04-29T03:38:51.187Z,1007.90
2017-04-29T03:39:52.604Z,1007.88
2017-04-29T03:40:54.020Z,1007.89
2017-04-29T03:41:55.443Z,1007.89
2017-04-29T03:42:56.865Z,1007.95
2017-04-29T03:43:58.279Z,1007.94
2017-04-29T03:44:59.691Z,1007.89
2017-04-29T03:46:01.108Z,1007.90
2017-04-29T03:47:02.523Z,1007.89
2017-04-29T03:48:03.939Z,1007.88
2017-04-29T03:49:05.352Z,1007.91
2017-04-29T03:50:06.772Z,1007.91
2017-04-29T03:51:08.184Z,1007.94
2017-04-29T03:52:09.608Z,1007.96
2017-04-29T03:53:11.026Z,1007.90
2017-04-29T03:54:12.442Z,1007.97
2017-04-29T03:55:13.854Z,1007.93
2017-04-29T03:56:15.273Z,1007.95
2017-04-29T03:57:16.685Z,1007.98
2017-04-29T03:58:18.106Z,1007.99
2017-04-29T03:59:19.514Z,1008.00
2017-04-29T04:00:20.937Z,1007.96
2017-04-29T04:01:22.352Z,1007.98
2017-04-29T04:02:23.778Z,1008.00
2017-04-29T04:03:25.193Z,1008.02
2017-04-29T04:04:26.642Z,1008.01
2017-04-29T04:05:28.028Z,1008.01
2017-04-29T04:06:29.440Z,1008.01
2017-04-29T04:07:30.856Z,1008.03
2017-04-29T04:08:32.270Z,1008.07
2017-04-29T04:09:33.681Z,1008.09
2017-04-29T04:10:35.097Z,1008.06
2017-04-29T04:11:36.524Z,1008.11
2017-04-29T04:12:37.937Z,1008.08
2017-04-29T04:13:39.350Z,1008.09
2017-04-29T04:14:40.764Z,1008.06
2017-04-29T04:15:42.200Z,1008.03
2017-04-29T04:16:43.616Z,1008.04
2017-04-29T04:17:45.112Z,1008.08
2017-04-29T04:18:46.555Z,1008.10
2017-04-29T04:19:47.969Z,1008.11
2017-04-29T04:20:49.391Z,1008.09
2017-04-29T04:21:50.817Z,1008.10
2017-04-29T04:22:52.231Z,1008.12
2017-04-29T04:23:53.650Z,1008.12
2017-04-29T04:24:55.065Z,1008.10
2017-04-29T04:25:56.479Z,1008.11
2017-04-29T04:26:57.895Z,1008.11
2017-04-29T04:27:59.309Z,1008.05
2017-04-29T04:29:00.726Z,1008.12
2017-04-29T04:30:02.149Z,1008.09
2017-04-29T04:31:03.564Z,1008.07
2017-04-29T04:32:04.982Z,1008.08
2017-04-29T04:33:06.396Z,1008.07
2017-04-29T04:34:07.810Z,1008.06
2017-04-29T04:35:09.234Z,1008.06
2017-04-29T04:36:10.649Z,1008.00
2017-04-29T04:37:12.074Z,1008.06
2017-04-29T04:38:13.486Z,1008.04
2017-04-29T04:39:14.909Z,1008.05
2017-04-29T04:40:16.327Z,1008.07
2017-04-29T04:41:17.743Z,1008.06
2017-04-29T04:42:19.160Z,1008.10
2017-04-29T04:43:20.574Z,1008.08
2017-04-29T04:44:21.990Z,1008.09
2017-04-29T04:45:23.412Z,1008.08
2017-04-29T04:46:24.829Z,1008.07
2017-04-29T04:47:26.245Z,1008.10
2017-04-29T04:48:27.662Z,1008.08
2017-04-29T04:49:29.079Z,1008.13
2017-04-29T04:50:30.488Z,1008.12
2017-04-29T04:51:31.904Z,1008.11
2017-04-29T04:52:33.322Z,1008.15
2017-04-29T04:53:34.737Z,1008.14
2017-04-29T04:54:36.152Z,1008.16
2017-04-29T04:55:37.569Z,1008.16
2017-04-29T04:56:38.992Z,1008.15
2017-04-29T04:57:40.412Z,1008.20
2017-04-29T04:58:41.831Z,1008.22
2017-04-29T04:59:43.257Z,1008.19
2017-04-29T05:00:44.673Z,1008.19
2017-04-29T05:01:46.089Z,1008.23
2017-04-29T05:02:47.509Z,1008.23
2017-04-29T05:03:48.932Z,1008.22
2017-04-29T05:04:50.349Z,1008.26
2017-04-29T05:05:51.771Z,1008.29
2017-04-29T05:06:53.190Z,1008.27
2017-04-29T05:07:54.603Z,1008.31
2017-04-29T05:08:56.023Z,1008.29
2017-04-29T05:09:57.439Z,1008.34
2017-04-29T05:10:58.857Z,1008.34
2017-04-29T05:12:00.280Z,1008.40
2017-04-29T05:13:01.696Z,1008.39
2017-04-29T05:14:03.120Z,1008.39
2017-04-29T05:15:04.541Z,1008.39
2017-04-29T05:16:05.968Z,1008.38
2017-04-29T05:17:07.392Z,1008.38
2017-04-29T05:18:08.804Z,1008.39
2017-04-29T05:19:10.232Z,1008.36
2017-04-29T05:20:11.648Z,1008.36
2017-04-29T05:21:13.067Z,1008.39
2017-04-29T05:22:14.482Z,1008.40
2017-04-29T05:23:15.898Z,1008.37
2017-04-29T05:24:17.317Z,1008.41
2017-04-29T05:25:18.740Z,1008.40
2017-04-29T05:26:20.154Z,1008.38
2017-04-29T05:27:21.579Z,1008.41
2017-04-29T05:28:22.999Z,1008.33
2017-04-29T05:29:24.416Z,1008.40
2017-04-29T05:30:25.833Z,1008.36
2017-04-29T05:31:27.249Z,1008.39
2017-04-29T05:32:28.666Z,1008.39
2017-04-29T05:33:30.085Z,1008.41
2017-04-29T05:34:31.504Z,1008.39
2017-04-29T05:35:32.928Z,1008.44
2017-04-29T05:36:34.349Z,1008.44
2017-04-29T05:37:35.762Z,1008.47
2017-04-29T05:38:37.181Z,1008.43
2017-04-29T05:39:38.602Z,1008.48
2017-04-29T05:40:40.041Z,1008.49
2017-04-29T05:41:41.461Z,1008.46
2017-04-29T05:42:42.879Z,1008.53
2017-04-29T05:43:44.296Z,1008.48
2017-04-29T05:44:45.725Z,1008.44
2017-04-29T05:45:47.145Z,1008.47
2017-04-29T05:46:48.557Z,1008.42
2017-04-29T05:47:50.736Z,1008.49
2017-04-29T05:48:52.154Z,1008.43
2017-04-29T05:49:53.570Z,1008.49
2017-04-29T05:50:54.994Z,1008.43
2017-04-29T05:51:56.407Z,1008.51
2017-04-29T05:52:57.823Z,1008.52
2017-04-29T05:53:59.245Z,1008.48
2017-04-29T05:55:00.666Z,1008.46
2017-04-29T05:56:02.089Z,1008.48
2017-04-29T05:57:03.508Z,1008.50
2017-04-29T05:58:04.923Z,1008.48
2017-04-29T05:59:06.353Z,1008.53
2017-04-29T06:00:07.762Z,1008.49
2017-04-29T06:01:09.186Z,1008.55
2017-04-29T06:02:10.606Z,1008.49
2017-04-29T06:03:12.033Z,1008.47
2017-04-29T06:04:13.459Z,1008.44
2017-04-29T06:05:14.880Z,1008.50
2017-04-29T06:06:16.297Z,1008.47
2017-04-29T06:07:17.719Z,1008.51
2017-04-29T06:08:19.141Z,1008.53
2017-04-29T06:09:20.568Z,1008.51
2017-04-29T06:10:21.986Z,1008.52
2017-04-29T06:11:23.407Z,1008.51
2017-04-29T06:12:24.830Z,1008.53
2017-04-29T06:13:26.250Z,1008.53
2017-04-29T06:14:27.671Z,1008.53
2017-04-29T06:15:29.089Z,1008.52
2017-04-29T06:16:30.508Z,1008.50
2017-04-29T06:17:31.928Z,1008.54
2017-04-29T06:18:33.349Z,1008.54
2017-04-29T06:19:34.769Z,1008.53
2017-04-29T06:20:36.193Z,1008.54
2017-04-29T06:21:37.608Z,1008.58
2017-04-29T06:22:39.028Z,1008.57
2017-04-29T06:23:40.449Z,1008.55
2017-04-29T06:24:41.872Z,1008.58
2017-04-29T06:25:43.288Z,1008.64
2017-04-29T06:26:44.714Z,1008.63
2017-04-29T06:27:46.135Z,1008.65
2017-04-29T06:28:47.555Z,1008.63
2017-04-29T06:29:48.985Z,1008.65
2017-04-29T06:30:50.412Z,1008.59
2017-04-29T06:31:51.840Z,1008.68
2017-04-29T06:32:53.258Z,1008.70
2017-04-29T06:33:54.685Z,1008.71
2017-04-29T06:34:56.108Z,1008.73
2017-04-29T06:35:57.530Z,1008.67
2017-04-29T06:36:58.954Z,1008.74
2017-04-29T06:38:00.383Z,1008.72
2017-04-29T06:39:01.807Z,1008.69
2017-04-29T06:40:03.259Z,1008.73
2017-04-29T06:41:04.675Z,1008.82
2017-04-29T06:42:06.106Z,1008.81
2017-04-29T06:43:07.526Z,1008.78
2017-04-29T06:44:08.945Z,1008.77
2017-04-29T06:45:10.370Z,1008.80
2017-04-29T06:46:11.792Z,1008.85
2017-04-29T06:47:13.219Z,1008.81
2017-04-29T06:48:14.648Z,1008.82
2017-04-29T06:49:16.069Z,1008.84
2017-04-29T06:50:17.493Z,1008.89
2017-04-29T06:51:18.917Z,1008.83
2017-04-29T06:52:20.331Z,1008.82
2017-04-29T06:53:21.754Z,1008.81
2017-04-29T06:54:23.167Z,1008.82
2017-04-29T06:55:24.610Z,1008.87
2017-04-29T06:56:26.008Z,1008.87
2017-04-29T06:57:27.436Z,1008.85
2017-04-29T06:58:28.855Z,1008.83
2017-04-29T06:59:30.294Z,1008.82
2017-04-29T07:00:31.717Z,1008.81
2017-04-29T07:01:33.144Z,1008.85
2017-04-29T07:02:34.566Z,1008.87
2017-04-29T07:03:35.977Z,1008.92
2017-04-29T07:04:37.398Z,1008.91
2017-04-29T07:05:38.820Z,1008.94
2017-04-29T07:06:40.237Z,1008.92
2017-04-29T07:07:41.691Z,1008.91
2017-04-29T07:08:43.077Z,1008.92
2017-04-29T07:09:44.501Z,1008.89
2017-04-29T07:10:45.916Z,1008.93
2017-04-29T07:11:47.329Z,1008.94
2017-04-29T07:12:48.751Z,1008.91
2017-04-29T07:13:50.179Z,1008.89
2017-04-29T07:14:51.605Z,1008.94
2017-04-29T07:15:53.031Z,1008.91
2017-04-29T07:16:54.454Z,1008.89
2017-04-29T07:17:55.881Z,1008.86
2017-04-29T07:18:57.297Z,1008.90
2017-04-29T07:19:58.715Z,1008.88
2017-04-29T07:21:00.136Z,1008.86
2017-04-29T07:22:01.556Z,1008.90
2017-04-29T07:23:02.973Z,1008.85
2017-04-29T07:24:04.397Z,1008.83
2017-04-29T07:25:05.829Z,1008.81
2017-04-29T07:26:07.250Z,1008.84
2017-04-29T07:27:08.672Z,1008.80
2017-04-29T07:28:10.091Z,1008.83
2017-04-29T07:29:11.517Z,1008.84
2017-04-29T07:30:12.939Z,1008.87
2017-04-29T07:31:14.364Z,1008.85
2017-04-29T07:32:15.790Z,1008.89
2017-04-29T07:33:17.212Z,1008.96
2017-04-29T07:34:18.640Z,1008.88
2017-04-29T07:35:20.079Z,1008.89
2017-04-29T07:36:21.474Z,1008.85
2017-04-29T07:37:22.903Z,1008.84
2017-04-29T07:38:24.335Z,1008.86
2017-04-29T07:39:25.749Z,1008.91
2017-04-29T07:40:27.184Z,1008.85
2017-04-29T07:41:28.610Z,1008.83
2017-04-29T07:42:30.032Z,1008.80
2017-04-29T07:43:31.462Z,1008.80
2017-04-29T07:44:32.917Z,1008.90
2017-04-29T07:45:34.341Z,1008.92
2017-04-29T07:46:35.770Z,1008.89
2017-04-29T07:47:37.205Z,1008.90
2017-04-29T07:48:38.633Z,1008.85
2017-04-29T07:49:40.059Z,1008.90
2017-04-29T07:50:41.485Z,1008.98
2017-04-29T07:51:42.911Z,1008.93
2017-04-29T07:52:44.345Z,1008.96
2017-04-29T07:53:45.769Z,1008.97
2017-04-29T07:54:47.192Z,1008.95
2017-04-29T07:55:48.623Z,1008.95
2017-04-29T07:56:50.045Z,1008.97
2017-04-29T07:57:51.467Z,1008.97
2017-04-29T07:58:52.888Z,1008.97
2017-04-29T07:59:54.314Z,1009.03
2017-04-29T08:00:55.731Z,1009.00
2017-04-29T08:01:57.158Z,1008.96
2017-04-29T08:02:58.570Z,1009.01
2017-04-29T08:04:00.001Z,1009.03
2017-04-29T08:05:01.432Z,1009.05
2017-04-29T08:06:02.844Z,1009.08
2017-04-29T08:07:04.273Z,1009.06
2017-04-29T08:08:05.696Z,1009.09
2017-04-29T08:09:07.124Z,1009.09
2017-04-29T08:10:08.546Z,1009.08
2017-04-29T08:11:09.968Z,1008.99
2017-04-29T08:12:11.392Z,1008.97
2017-04-29T08:13:12.815Z,1008.98
2017-04-29T08:14:14.248Z,1008.98
2017-04-29T08:15:15.671Z,1009.00
2017-04-29T08:16:17.088Z,1008.99
2017-04-29T08:17:18.514Z,1009.01
2017-04-29T08:18:19.946Z,1009.04
2017-04-29T08:19:21.380Z,1009.04
2017-04-29T08:20:22.799Z,1009.05
2017-04-29T08:21:24.230Z,1009.03
2017-04-29T08:22:25.661Z,1009.09
2017-04-29T08:23:27.092Z,1009.06
2017-04-29T08:24:28.512Z,1009.07
2017-04-29T08:25:29.936Z,1009.06
2017-04-29T08:26:31.363Z,1009.08
2017-04-29T08:27:32.788Z,1009.11
2017-04-29T08:28:34.208Z,1009.12
2017-04-29T08:29:35.636Z,1009.11
2017-04-29T08:30:37.064Z,1009.07
2017-04-29T08:31:38.481Z,1009.07
2017-04-29T08:32:39.915Z,1009.09
2017-04-29T08:33:41.340Z,1009.08
2017-04-29T08:34:43.644Z,1009.15
2017-04-29T08:35:45.072Z,1009.10
2017-04-29T08:36:46.586Z,1009.08
2017-04-29T08:37:48.016Z,1009.09
2017-04-29T08:38:49.438Z,1009.08
2017-04-29T08:39:50.863Z,1009.13
2017-04-29T08:40:52.282Z,1009.10
2017-04-29T08:41:53.722Z,1009.12
2017-04-29T08:42:55.150Z,1009.14
2017-04-29T08:43:56.575Z,1009.12
2017-04-29T08:44:57.997Z,1009.14
2017-04-29T08:45:59.423Z,1009.17
2017-04-29T08:47:00.849Z,1009.20
2017-04-29T08:48:02.280Z,1009.19
2017-04-29T08:49:03.706Z,1009.22
2017-04-29T08:50:05.132Z,1009.26
2017-04-29T08:51:06.562Z,1009.24
2017-04-29T08:52:07.988Z,1009.30
2017-04-29T08:53:09.409Z,1009.33
2017-04-29T08:54:10.839Z,1009.31
2017-04-29T08:55:12.264Z,1009.34
2017-04-29T08:56:13.688Z,1009.32
2017-04-29T08:57:15.128Z,1009.34
2017-04-29T08:58:16.540Z,1009.31
2017-04-29T08:59:17.968Z,1009.29
2017-04-29T09:00:19.389Z,1009.30
2017-04-29T09:01:20.813Z,1009.31
2017-04-29T09:02:23.096Z,1009.28
2017-04-29T09:03:24.522Z,1009.32
2017-04-29T09:04:25.953Z,1009.34
2017-04-29T09:05:27.373Z,1009.30
2017-04-29T09:06:28.796Z,1009.28
2017-04-29T09:07:30.226Z,1009.31
2017-04-29T09:08:31.651Z,1009.29
2017-04-29T09:09:33.074Z,1009.27
2017-04-29T09:10:34.506Z,1009.33
2017-04-29T09:11:35.924Z,1009.31
2017-04-29T09:12:37.346Z,1009.38
2017-04-29T09:13:38.777Z,1009.36
2017-04-29T09:14:40.196Z,1009.37
2017-04-29T09:15:41.622Z,1009.40
2017-04-29T09:16:43.044Z,1009.36
2017-04-29T09:17:44.464Z,1009.37
2017-04-29T09:18:45.894Z,1009.37
2017-04-29T09:19:47.317Z,1009.34
2017-04-29T09:20:48.746Z,1009.32
2017-04-29T09:21:50.178Z,1009.34
2017-04-29T09:22:51.608Z,1009.37
2017-04-29T09:23:53.041Z,1009.37
2017-04-29T09:24:54.454Z,1009.39
2017-04-29T09:25:55.889Z,1009.39
2017-04-29T09:26:57.321Z,1009.38
2017-04-29T09:27:58.757Z,1009.36
2017-04-29T09:29:00.185Z,1009.42
2017-04-29T09:30:01.613Z,1009.37
2017-04-29T09:31:03.035Z,1009.38
2017-04-29T09:32:04.465Z,1009.38
2017-04-29T09:33:05.891Z,1009.45
2017-04-29T09:34:07.323Z,1009.43
2017-04-29T09:35:08.761Z,1009.45
2017-04-29T09:36:10.192Z,1009.46
2017-04-29T09:37:11.614Z,1009.44
2017-04-29T09:38:13.046Z,1009.44
2017-04-29T09:39:14.477Z,1009.45
2017-04-29T09:40:15.893Z,1009.50
2017-04-29T09:41:17.326Z,1009.50
2017-04-29T09:42:18.757Z,1009.50
2017-04-29T09:43:20.180Z,1009.54
2017-04-29T09:44:21.607Z,1009.52
2017-04-29T09:45:23.036Z,1009.56
2017-04-29T09:46:24.458Z,1009.55
2017-04-29T09:47:25.888Z,1009.54
2017-04-29T09:48:27.315Z,1009.48
2017-04-29T09:49:28.739Z,1009.50
2017-04-29T09:50:30.162Z,1009.51
2017-04-29T09:51:31.588Z,1009.49
2017-04-29T09:52:33.016Z,1009.51
2017-04-29T09:53:34.449Z,1009.43
2017-04-29T09:54:35.871Z,1009.48
2017-04-29T09:55:37.304Z,1009.52
2017-04-29T09:56:38.723Z,1009.51
2017-04-29T09:57:40.166Z,1009.49
2017-04-29T09:58:42.224Z,1009.49
2017-04-29T09:59:44.245Z,1009.46
2017-04-29T10:00:45.675Z,1009.48
2017-04-29T10:01:47.102Z,1009.45
2017-04-29T10:02:48.541Z,1009.49
2017-04-29T10:03:49.965Z,1009.45
2017-04-29T10:04:51.402Z,1009.39
2017-04-29T10:05:52.825Z,1009.45
2017-04-29T10:06:54.261Z,1009.39
2017-04-29T10:07:55.681Z,1009.41
2017-04-29T10:08:57.102Z,1009.42
2017-04-29T10:09:58.528Z,1009.33
2017-04-29T10:10:59.955Z,1009.42
2017-04-29T10:12:01.389Z,1009.37
2017-04-29T10:13:02.813Z,1009.38
2017-04-29T10:14:04.239Z,1009.36
2017-04-29T10:15:05.665Z,1009.39
2017-04-29T10:16:07.099Z,1009.40
2017-04-29T10:17:08.518Z,1009.44
2017-04-29T10:18:09.956Z,1009.44
2017-04-29T10:19:11.397Z,1009.39
2017-04-29T10:20:12.823Z,1009.42
2017-04-29T10:21:14.250Z,1009.40
2017-04-29T10:22:15.684Z,1009.41
2017-04-29T10:23:17.105Z,1009.44
2017-04-29T10:24:18.551Z,1009.42
2017-04-29T10:25:19.967Z,1009.40
2017-04-29T10:26:21.409Z,1009.43
2017-04-29T10:27:22.850Z,1009.40
2017-04-29T10:28:24.280Z,1009.43
2017-04-29T10:29:25.702Z,1009.48
2017-04-29T10:30:27.136Z,1009.40
2017-04-29T10:31:28.565Z,1009.44
2017-04-29T10:32:30.001Z,1009.40
2017-04-29T10:33:31.440Z,1009.39
2017-04-29T10:34:32.868Z,1009.31
2017-04-29T10:35:34.300Z,1009.28
2017-04-29T10:36:35.728Z,1009.30
2017-04-29T10:37:37.684Z,1009.30
2017-04-29T10:38:38.517Z,1009.31
2017-04-29T10:39:39.945Z,1009.26
2017-04-29T10:40:41.372Z,1009.26
2017-04-29T10:41:42.811Z,1009.26
2017-04-29T10:42:44.235Z,1009.29
2017-04-29T10:43:45.655Z,1009.30
2017-04-29T10:44:47.082Z,1009.22
2017-04-29T10:45:48.507Z,1009.21
2017-04-29T10:46:49.929Z,1009.24
2017-04-29T10:47:51.353Z,1009.21
2017-04-29T10:48:52.777Z,1009.23
2017-04-29T10:49:54.210Z,1009.26
2017-04-29T10:50:55.643Z,1009.24
2017-04-29T10:51:57.081Z,1009.27
2017-04-29T10:52:58.503Z,1009.30
2017-04-29T10:53:59.931Z,1009.33
2017-04-29T10:55:01.356Z,1009.36
2017-04-29T10:56:02.783Z,1009.33
2017-04-29T10:57:04.219Z,1009.20
2017-04-29T10:58:05.634Z,1009.25
2017-04-29T10:59:07.710Z,1009.28
2017-04-29T11:00:09.155Z,1009.28
2017-04-29T11:01:10.582Z,1009.21
2017-04-29T11:02:12.005Z,1009.26
2017-04-29T11:03:13.428Z,1009.31
2017-04-29T11:04:14.854Z,1009.24
2017-04-29T11:05:16.297Z,1009.26
2017-04-29T11:06:17.719Z,1009.26
2017-04-29T11:07:19.144Z,1009.24
2017-04-29T11:08:20.577Z,1009.22
2017-04-29T11:09:22.007Z,1009.23
2017-04-29T11:10:23.435Z,1009.20
2017-04-29T11:11:24.864Z,1009.23
2017-04-29T11:12:26.292Z,1009.26
2017-04-29T11:13:27.723Z,1009.27
2017-04-29T11:14:29.150Z,1009.27
2017-04-29T11:15:30.588Z,1009.25
2017-04-29T11:16:32.009Z,1009.20
2017-04-29T11:17:34.208Z,1009.17
2017-04-29T11:18:35.633Z,1009.16
2017-04-29T11:19:37.070Z,1009.18
2017-04-29T11:20:38.607Z,1009.19
2017-04-29T11:21:40.036Z,1009.16
2017-04-29T11:22:41.466Z,1009.14
2017-04-29T11:23:42.894Z,1009.13
2017-04-29T11:24:44.326Z,1009.12
2017-04-29T11:25:45.767Z,1009.15
2017-04-29T11:26:47.190Z,1009.14
2017-04-29T11:27:48.616Z,1009.22
2017-04-29T11:28:50.038Z,1009.17
2017-04-29T11:29:51.465Z,1009.23
2017-04-29T11:30:52.894Z,1009.14
2017-04-29T11:31:54.315Z,1009.14
2017-04-29T11:32:55.736Z,1009.07
2017-04-29T11:33:57.172Z,1009.06
2017-04-29T11:34:58.594Z,1008.98
2017-04-29T11:36:00.020Z,1008.98
2017-04-29T11:37:01.446Z,1008.97
2017-04-29T11:38:02.881Z,1008.94
2017-04-29T11:39:04.305Z,1009.01
2017-04-29T11:40:05.732Z,1008.97
2017-04-29T11:41:07.154Z,1008.95
2017-04-29T11:42:08.584Z,1008.95
2017-04-29T11:43:10.005Z,1008.94
2017-04-29T11:44:11.444Z,1008.89
2017-04-29T11:45:12.863Z,1008.98
2017-04-29T11:46:14.297Z,1008.98
2017-04-29T11:47:15.714Z,1008.96
2017-04-29T11:48:17.140Z,1008.96
2017-04-29T11:49:18.561Z,1008.91
2017-04-29T11:50:19.992Z,1008.95
2017-04-29T11:51:21.422Z,1008.96
2017-04-29T11:52:22.854Z,1008.97
2017-04-29T11:53:24.290Z,1008.98
2017-04-29T11:54:25.729Z,1008.95
2017-04-29T11:55:27.155Z,1008.99
2017-04-29T11:56:28.583Z,1009.01
2017-04-29T11:57:30.015Z,1009.05
2017-04-29T11:58:31.440Z,1009.05
2017-04-29T11:59:32.863Z,1008.99
2017-04-29T12:00:34.296Z,1009.04
2017-04-29T12:01:35.718Z,1009.07
2017-04-29T12:02:37.154Z,1009.12
2017-04-29T12:03:38.584Z,1009.13
2017-04-29T12:04:40.015Z,1009.07
2017-04-29T12:05:41.440Z,1009.11
2017-04-29T12:06:42.865Z,1009.08
2017-04-29T12:07:44.293Z,1009.05
2017-04-29T12:08:45.715Z,1009.05
2017-04-29T12:09:47.139Z,1009.05
2017-04-29T12:10:48.566Z,1009.04
2017-04-29T12:11:49.991Z,1009.00
2017-04-29T12:12:51.422Z,1009.04
2017-04-29T12:13:52.844Z,1009.04
2017-04-29T12:14:54.272Z,1008.99
2017-04-29T12:15:55.693Z,1009.00
2017-04-29T12:16:57.125Z,1008.98
2017-04-29T12:17:58.559Z,1009.02
2017-04-29T12:18:59.983Z,1008.96
2017-04-29T12:20:01.412Z,1008.98
2017-04-29T12:21:02.866Z,1008.95
2017-04-29T12:22:04.301Z,1009.02
2017-04-29T12:23:05.726Z,1009.04